createdAt,value
2022-10-28T00:01:21.584Z,3.20
2022-10-28T00:03:50.956Z,4.05
2022-10-28T00:06:20.470Z,3.70
2022-10-28T00:08:47.871Z,3.37
2022-10-28T00:11:16.587Z,3.90
2022-10-28T00:14:05.540Z,3.53
2022-10-28T00:16:52.167Z,4.10
2022-10-28T00:19:38.520Z,3.50
2022-10-28T00:22:25.216Z,3.55
2022-10-28T00:25:11.642Z,3.33
2022-10-28T00:27:58.069Z,3.40
2022-10-28T00:30:24.517Z,4.10
2022-10-28T00:32:51.318Z,3.60
2022-10-28T00:35:18.174Z,3.70
2022-10-28T00:37:44.736Z,3.55
2022-10-28T00:40:11.786Z,3.20
2022-10-28T00:42:38.162Z,3.05
2022-10-28T00:45:05.646Z,3.80
2022-10-28T00:47:42.691Z,3.58
2022-10-28T00:50:22.833Z,3.33
2022-10-28T00:52:55.614Z,3.33
2022-10-28T00:55:23.175Z,3.40
2022-10-28T00:57:51.184Z,3.30
2022-10-28T01:00:18.272Z,3.00
2022-10-28T01:02:48.039Z,4.35
2022-10-28T01:05:18.994Z,3.17
2022-10-28T01:07:45.447Z,3.75
2022-10-28T01:10:14.751Z,3.20
2022-10-28T01:13:06.470Z,3.10
2022-10-28T01:15:46.350Z,3.45
2022-10-28T01:18:54.319Z,3.72
2022-10-28T01:21:45.325Z,3.58
2022-10-28T01:24:35.547Z,3.53
2022-10-28T01:29:54.623Z,3.92
2022-10-28T01:32:32.028Z,3.72
2022-10-28T01:35:14.807Z,3.55
2022-10-28T01:38:14.940Z,3.40
2022-10-28T01:41:08.302Z,3.00
2022-10-28T01:43:50.151Z,3.63
2022-10-28T01:46:24.769Z,3.53
2022-10-28T01:48:58.816Z,3.38
2022-10-28T01:51:44.723Z,3.63
2022-10-28T01:54:16.255Z,3.47
2022-10-28T01:56:46.724Z,3.53
2022-10-28T01:59:20.337Z,3.50
2022-10-28T02:01:47.235Z,3.83
2022-10-28T02:04:14.239Z,3.55
2022-10-28T02:06:43.927Z,3.38
2022-10-28T02:09:20.590Z,3.63
2022-10-28T02:12:24.796Z,3.00
2022-10-28T02:17:40.255Z,3.10
2022-10-28T02:20:26.264Z,3.50
2022-10-28T02:23:01.600Z,3.25
2022-10-28T02:25:43.396Z,2.80
2022-10-28T02:28:15.632Z,3.08
2022-10-28T02:30:57.895Z,3.20
2022-10-28T02:33:29.264Z,3.83
2022-10-28T02:36:06.410Z,3.20
2022-10-28T02:38:40.163Z,3.10
2022-10-28T02:41:15.641Z,3.75
2022-10-28T02:43:43.984Z,3.33
2022-10-28T02:46:13.262Z,3.92
2022-10-28T02:48:52.648Z,3.23
2022-10-28T02:51:30.327Z,3.47
2022-10-28T02:54:17.650Z,2.80
2022-10-28T02:56:54.651Z,3.25
2022-10-28T02:59:24.844Z,3.13
2022-10-28T03:01:51.559Z,3.80
2022-10-28T03:04:17.971Z,3.30
2022-10-28T03:06:44.461Z,3.30
2022-10-28T03:09:10.823Z,3.20
2022-10-28T03:11:37.536Z,3.40
2022-10-28T03:14:04.325Z,3.55
2022-10-28T03:16:30.921Z,3.50
2022-10-28T03:18:57.409Z,3.10
2022-10-28T03:21:24.106Z,3.47
2022-10-28T03:23:50.992Z,4.00
2022-10-28T03:26:18.006Z,3.45
2022-10-28T03:28:44.602Z,3.20
2022-10-28T03:31:12.236Z,3.05
2022-10-28T03:33:38.592Z,3.13
2022-10-28T03:36:05.450Z,3.47
2022-10-28T03:38:32.361Z,3.90
2022-10-28T03:40:59.263Z,3.50
2022-10-28T03:43:25.650Z,2.95
2022-10-28T03:45:52.495Z,3.20
2022-10-28T03:48:19.419Z,3.03
2022-10-28T03:50:45.789Z,2.65
2022-10-28T03:53:12.604Z,3.33
2022-10-28T03:55:39.190Z,2.90
2022-10-28T03:58:05.776Z,3.00
2022-10-28T04:00:32.248Z,2.72
2022-10-28T04:02:59.168Z,3.40
2022-10-28T04:05:25.547Z,2.78
2022-10-28T04:07:54.224Z,3.08
2022-10-28T04:10:20.628Z,2.70
2022-10-28T04:12:47.457Z,3.13
2022-10-28T04:15:13.938Z,3.28
2022-10-28T04:17:40.646Z,3.28
2022-10-28T04:20:07.802Z,3.60
2022-10-28T04:22:34.554Z,3.30
2022-10-28T04:25:00.979Z,2.75
2022-10-28T04:27:27.358Z,2.88
2022-10-28T04:29:54.245Z,2.65
2022-10-28T04:32:20.603Z,3.00
2022-10-28T04:34:47.559Z,2.95
2022-10-28T04:37:17.006Z,3.72
2022-10-28T04:39:47.119Z,2.92
2022-10-28T04:42:13.642Z,3.70
2022-10-28T04:44:40.323Z,3.28
2022-10-28T04:47:06.986Z,2.90
2022-10-28T04:49:36.663Z,3.45
2022-10-28T04:52:05.418Z,2.80
2022-10-28T04:54:32.082Z,3.97
2022-10-28T04:56:58.467Z,3.50
2022-10-28T04:59:25.376Z,3.35
2022-10-28T05:01:51.811Z,4.15
2022-10-28T05:04:18.340Z,2.90
2022-10-28T05:06:45.128Z,3.22
2022-10-28T05:09:12.428Z,4.47
2022-10-28T05:11:38.828Z,4.00
2022-10-28T05:14:05.509Z,3.55
2022-10-28T05:16:32.147Z,3.95
2022-10-28T05:18:58.839Z,4.15
2022-10-28T05:21:25.562Z,4.72
2022-10-28T05:23:52.055Z,4.40
2022-10-28T05:26:18.543Z,4.38
2022-10-28T05:28:49.312Z,4.55
2022-10-28T05:31:16.301Z,4.57
2022-10-28T05:33:42.698Z,4.80
2022-10-28T05:36:09.459Z,5.47
2022-10-28T05:38:35.901Z,5.43
2022-10-28T05:41:03.564Z,5.00
2022-10-28T05:43:29.978Z,5.88
2022-10-28T05:45:57.646Z,5.75
2022-10-28T05:48:25.001Z,5.13
2022-10-28T05:50:51.570Z,6.20
2022-10-28T05:53:18.445Z,5.05
2022-10-28T05:55:47.626Z,4.18
2022-10-28T05:58:15.085Z,3.88
2022-10-28T06:00:41.782Z,3.00
2022-10-28T06:03:11.950Z,3.30
2022-10-28T06:05:42.117Z,3.08
2022-10-28T06:10:37.214Z,3.65
2022-10-28T06:13:02.599Z,2.75
2022-10-28T06:15:29.234Z,3.80
2022-10-28T06:17:56.372Z,3.30
2022-10-28T06:20:22.812Z,3.33
2022-10-28T06:22:51.088Z,3.38
2022-10-28T06:25:19.650Z,3.28
2022-10-28T06:27:57.028Z,2.97
2022-10-28T06:30:25.291Z,2.90
2022-10-28T06:32:54.383Z,3.10
2022-10-28T06:35:21.082Z,3.53
2022-10-28T06:37:52.592Z,3.08
2022-10-28T06:40:19.509Z,2.88
2022-10-28T06:42:45.873Z,3.00
2022-10-28T06:45:12.440Z,3.15
2022-10-28T06:47:41.594Z,2.83
2022-10-28T06:50:08.956Z,2.92
2022-10-28T06:52:35.463Z,3.45
2022-10-28T06:55:02.178Z,3.67
2022-10-28T06:57:29.374Z,4.55
2022-10-28T06:59:55.924Z,4.38
2022-10-28T07:02:22.793Z,5.60
2022-10-28T07:04:49.302Z,4.97
2022-10-28T07:07:16.034Z,5.18
2022-10-28T07:09:44.522Z,4.40
2022-10-28T07:12:10.979Z,5.03
2022-10-28T07:14:37.729Z,4.90
2022-10-28T07:17:04.434Z,4.70
2022-10-28T07:19:31.311Z,5.07
2022-10-28T07:21:58.090Z,4.32
2022-10-28T07:24:24.561Z,4.65
2022-10-28T07:26:53.103Z,5.32
2022-10-28T07:29:22.082Z,5.28
2022-10-28T07:31:48.455Z,5.05
2022-10-28T07:34:15.500Z,4.82
2022-10-28T07:36:42.129Z,4.90
2022-10-28T07:39:10.064Z,4.18
2022-10-28T07:41:37.312Z,4.80
2022-10-28T07:44:03.827Z,5.07
2022-10-28T07:46:30.720Z,5.80
2022-10-28T07:48:57.108Z,4.57
2022-10-28T07:51:23.505Z,5.93
2022-10-28T07:53:49.878Z,7.20
2022-10-28T07:56:16.532Z,6.22
2022-10-28T07:58:44.797Z,6.00
2022-10-28T08:01:13.704Z,6.78
2022-10-28T08:03:40.247Z,5.18
2022-10-28T08:06:17.498Z,4.80
2022-10-28T08:08:45.235Z,6.05
2022-10-28T08:11:16.600Z,5.68
2022-10-28T08:13:43.559Z,5.80
2022-10-28T08:16:10.567Z,5.68
2022-10-28T08:18:38.611Z,5.03
2022-10-28T08:21:07.328Z,5.80
2022-10-28T08:23:34.215Z,5.18
2022-10-28T08:26:01.249Z,4.85
2022-10-28T08:28:27.750Z,5.00
2022-10-28T08:31:08.359Z,5.18
2022-10-28T08:33:37.912Z,4.75
2022-10-28T08:36:05.065Z,4.68
2022-10-28T08:38:31.497Z,4.43
2022-10-28T08:41:25.896Z,5.25
2022-10-28T08:44:04.665Z,3.83
2022-10-28T08:46:37.576Z,3.50
2022-10-28T08:49:11.972Z,2.60
2022-10-28T08:51:45.263Z,2.70
2022-10-28T08:54:24.169Z,2.30
2022-10-28T08:56:51.909Z,3.25
2022-10-28T08:59:29.807Z,2.67
2022-10-28T09:02:03.773Z,2.67
2022-10-28T09:04:43.351Z,2.95
2022-10-28T09:07:22.274Z,2.75
2022-10-28T09:09:50.488Z,2.47
2022-10-28T09:12:40.627Z,3.08
2022-10-28T09:15:22.715Z,2.47
2022-10-28T09:17:54.721Z,2.55
2022-10-28T09:20:48.352Z,3.50
2022-10-28T09:23:22.636Z,2.72
2022-10-28T09:26:02.202Z,2.55
2022-10-28T09:28:53.521Z,2.28
2022-10-28T09:31:47.411Z,2.40
2022-10-28T09:34:23.881Z,2.60
2022-10-28T09:37:14.093Z,3.20
2022-10-28T09:39:55.166Z,3.22
2022-10-28T09:42:27.396Z,2.80
2022-10-28T09:45:06.232Z,2.80
2022-10-28T09:47:43.239Z,3.30
2022-10-28T09:50:17.318Z,3.08
2022-10-28T09:52:59.182Z,3.45
2022-10-28T09:55:25.791Z,3.72
2022-10-28T09:57:52.602Z,3.40
2022-10-28T10:00:19.449Z,4.68
2022-10-28T10:02:45.993Z,3.60
2022-10-28T10:05:17.006Z,3.55
2022-10-28T10:08:17.863Z,3.08
2022-10-28T10:11:04.044Z,3.72
2022-10-28T10:13:41.291Z,3.85
2022-10-28T10:16:40.999Z,3.60
2022-10-28T10:19:11.477Z,3.85
2022-10-28T10:21:51.100Z,3.63
2022-10-28T10:24:31.271Z,3.55
2022-10-28T10:27:12.193Z,3.42
2022-10-28T10:29:45.459Z,3.50
2022-10-28T10:32:19.616Z,4.07
2022-10-28T10:35:02.266Z,2.78
2022-10-28T10:37:36.104Z,3.28
2022-10-28T10:40:08.085Z,3.05
2022-10-28T10:42:39.258Z,3.00
2022-10-28T10:45:14.928Z,3.28
2022-10-28T10:47:42.144Z,2.50
2022-10-28T10:50:29.375Z,2.58
2022-10-28T10:52:59.306Z,2.38
2022-10-28T10:55:38.921Z,2.95
2022-10-28T11:00:44.467Z,3.35
2022-10-28T11:03:19.012Z,2.65
2022-10-28T11:06:05.342Z,2.60
2022-10-28T11:08:41.265Z,2.97
2022-10-28T11:11:20.078Z,2.33
2022-10-28T11:13:48.610Z,2.97
2022-10-28T11:16:22.007Z,2.42
2022-10-28T11:18:51.552Z,3.50
2022-10-28T11:21:36.897Z,3.25
2022-10-28T11:24:28.019Z,3.00
2022-10-28T11:27:15.847Z,2.70
2022-10-28T11:29:42.571Z,2.88
2022-10-28T11:32:54.638Z,2.70
2022-10-28T11:35:56.478Z,3.45
2022-10-28T11:38:34.467Z,2.80
2022-10-28T11:41:10.093Z,2.95
2022-10-28T11:44:00.867Z,3.47
2022-10-28T11:46:40.881Z,2.92
2022-10-28T11:49:32.354Z,3.38
2022-10-28T11:52:01.942Z,2.20
2022-10-28T11:54:43.027Z,2.35
2022-10-28T11:57:14.905Z,2.58
2022-10-28T12:00:00.197Z,3.15
2022-10-28T12:02:37.771Z,3.13
2022-10-28T12:05:23.600Z,3.15
2022-10-28T12:08:11.273Z,2.50
2022-10-28T12:10:58.771Z,2.53
2022-10-28T12:16:44.075Z,2.80
2022-10-28T12:19:26.858Z,3.20
2022-10-28T12:22:11.640Z,3.00
2022-10-28T12:24:40.965Z,2.97
2022-10-28T12:27:18.050Z,2.70
2022-10-28T12:29:51.497Z,2.85
2022-10-28T12:32:23.197Z,2.83
2022-10-28T12:35:07.837Z,2.72
2022-10-28T12:37:42.123Z,3.08
2022-10-28T12:40:20.539Z,2.72
2022-10-28T12:42:58.987Z,2.30
2022-10-28T12:45:26.534Z,2.70
2022-10-28T12:48:15.103Z,2.65
2022-10-28T12:50:51.970Z,2.50
2022-10-28T12:53:34.569Z,2.80
2022-10-28T12:56:03.176Z,2.75
2022-10-28T12:58:41.905Z,2.28
2022-10-28T13:01:12.680Z,2.47
2022-10-28T13:03:39.974Z,2.50
2022-10-28T13:06:09.430Z,2.80
2022-10-28T13:08:38.788Z,3.13
2022-10-28T13:11:21.134Z,2.47
2022-10-28T13:14:16.161Z,2.65
2022-10-28T13:16:42.774Z,2.60
2022-10-28T13:19:24.410Z,2.90
2022-10-28T13:22:15.987Z,3.00
2022-10-28T13:24:58.254Z,3.35
2022-10-28T13:27:25.976Z,2.50
2022-10-28T13:29:56.150Z,2.97
2022-10-28T13:35:13.102Z,2.83
2022-10-28T13:37:40.755Z,3.00
2022-10-28T13:40:32.585Z,2.75
2022-10-28T13:43:01.100Z,2.90
2022-10-28T13:45:49.505Z,2.90
2022-10-28T13:48:28.946Z,2.95
2022-10-28T13:51:11.107Z,2.72
2022-10-28T13:53:46.817Z,2.53
2022-10-28T13:56:26.747Z,2.80
2022-10-28T13:59:03.437Z,2.80
2022-10-28T14:02:01.441Z,2.90
2022-10-28T14:04:39.125Z,3.03
2022-10-28T14:07:08.520Z,2.80
2022-10-28T14:09:36.690Z,3.03
2022-10-28T14:12:17.376Z,3.17
2022-10-28T14:15:17.836Z,2.80
2022-10-28T14:17:49.337Z,2.85
2022-10-28T14:20:26.923Z,2.83
2022-10-28T14:22:54.566Z,3.75
2022-10-28T14:25:59.842Z,3.55
2022-10-28T14:28:32.493Z,3.13
2022-10-28T14:31:11.474Z,3.55
2022-10-28T14:33:54.765Z,3.10
2022-10-28T14:36:33.997Z,3.17
2022-10-28T14:39:04.032Z,3.58
2022-10-28T14:42:01.980Z,2.92
2022-10-28T14:44:47.452Z,3.10
2022-10-28T14:47:46.714Z,4.03
2022-10-28T14:50:21.148Z,2.60
2022-10-28T14:52:50.457Z,2.90
2022-10-28T14:55:30.039Z,2.97
2022-10-28T14:58:22.834Z,2.97
2022-10-28T15:01:22.879Z,3.00
2022-10-28T15:06:39.250Z,2.90
2022-10-28T15:09:17.750Z,3.17
2022-10-28T15:11:49.193Z,3.33
2022-10-28T15:14:25.313Z,3.45
2022-10-28T15:16:52.552Z,2.88
2022-10-28T15:19:21.976Z,2.33
2022-10-28T15:22:07.349Z,2.78
2022-10-28T15:24:34.097Z,3.17
2022-10-28T15:27:00.588Z,3.40
2022-10-28T15:29:27.366Z,2.78
2022-10-28T15:32:23.155Z,3.10
2022-10-28T15:34:50.233Z,2.50
2022-10-28T15:37:25.213Z,2.70
2022-10-28T15:40:12.374Z,2.97
2022-10-28T15:42:42.303Z,2.78
2022-10-28T15:45:23.743Z,3.60
2022-10-28T15:47:50.674Z,3.10
2022-10-28T15:50:17.058Z,3.28
2022-10-28T15:52:48.182Z,2.90
2022-10-28T15:55:35.838Z,2.78
2022-10-28T15:58:18.081Z,2.40
2022-10-28T16:00:53.953Z,2.85
2022-10-28T16:03:41.654Z,3.38
2022-10-28T16:06:36.991Z,2.97
2022-10-28T16:09:32.212Z,3.63
2022-10-28T16:12:02.109Z,3.67
2022-10-28T16:14:41.861Z,2.88
2022-10-28T16:17:27.223Z,3.25
2022-10-28T16:20:26.916Z,3.70
2022-10-28T16:22:53.935Z,3.00
2022-10-28T16:25:22.121Z,3.05
2022-10-28T16:27:50.778Z,3.75
2022-10-28T16:30:17.914Z,2.88
2022-10-28T16:32:48.105Z,3.55
2022-10-28T16:37:45.801Z,2.97
2022-10-28T16:43:01.392Z,2.60
2022-10-28T16:45:28.165Z,3.10
2022-10-28T16:47:55.168Z,3.30
2022-10-28T16:50:21.950Z,3.92
2022-10-28T16:52:48.577Z,2.85
2022-10-28T16:55:19.442Z,2.80
2022-10-28T16:57:45.858Z,3.70
2022-10-28T17:00:15.734Z,3.25
2022-10-28T17:02:42.664Z,3.17
2022-10-28T17:05:20.238Z,3.55
2022-10-28T17:07:47.286Z,3.40
2022-10-28T17:10:14.305Z,3.05
2022-10-28T17:12:41.066Z,3.45
2022-10-28T17:15:09.849Z,3.33
2022-10-28T17:17:36.290Z,3.47
2022-10-28T17:20:04.275Z,3.33
2022-10-28T17:22:30.955Z,3.17
2022-10-28T17:24:57.589Z,3.50
2022-10-28T17:27:24.053Z,2.72
2022-10-28T17:29:50.734Z,3.38
2022-10-28T17:32:17.216Z,2.65
2022-10-28T17:34:43.583Z,3.72
2022-10-28T17:37:10.403Z,2.90
2022-10-28T17:39:37.754Z,3.15
2022-10-28T17:42:04.206Z,3.83
2022-10-28T17:44:30.790Z,3.25
2022-10-28T17:46:57.379Z,3.38
2022-10-28T17:49:24.031Z,3.60
2022-10-28T17:51:51.667Z,4.75
2022-10-28T17:54:18.139Z,3.17
2022-10-28T17:56:45.226Z,2.95
2022-10-28T17:59:12.081Z,3.30
2022-10-28T18:01:38.605Z,3.90
2022-10-28T18:04:05.968Z,3.17
2022-10-28T18:06:32.692Z,3.85
2022-10-28T18:08:59.079Z,3.47
2022-10-28T18:11:27.216Z,3.97
2022-10-28T18:13:55.774Z,3.83
2022-10-28T18:16:24.199Z,4.40
2022-10-28T18:18:51.711Z,3.92
2022-10-28T18:21:18.212Z,4.00
2022-10-28T18:23:44.833Z,4.75
2022-10-28T18:26:15.861Z,4.28
2022-10-28T18:28:43.755Z,4.38
2022-10-28T18:31:15.683Z,4.45
2022-10-28T18:33:43.279Z,4.22
2022-10-28T18:36:18.632Z,4.53
2022-10-28T18:38:45.282Z,3.97
2022-10-28T18:41:14.770Z,4.35
2022-10-28T18:43:41.893Z,4.45
2022-10-28T18:46:08.398Z,5.30
2022-10-28T18:48:35.120Z,4.80
2022-10-28T18:51:07.437Z,4.40
2022-10-28T18:53:38.977Z,4.25
2022-10-28T18:56:08.036Z,5.03
2022-10-28T18:58:34.834Z,4.40
2022-10-28T19:01:11.638Z,3.85
2022-10-28T19:03:38.935Z,4.30
2022-10-28T19:06:11.547Z,4.32
2022-10-28T19:08:39.339Z,4.45
2022-10-28T19:11:07.087Z,3.72
2022-10-28T19:13:38.847Z,4.82
2022-10-28T19:16:05.643Z,3.75
2022-10-28T19:18:35.623Z,4.40
2022-10-28T19:21:12.383Z,4.40
2022-10-28T19:23:40.042Z,4.43
2022-10-28T19:26:07.915Z,4.30
2022-10-28T19:28:39.455Z,4.35
2022-10-28T19:31:09.089Z,4.50
2022-10-28T19:33:38.225Z,5.13
2022-10-28T19:36:18.865Z,5.90
2022-10-28T19:38:46.902Z,5.07
2022-10-28T19:41:18.715Z,4.60
2022-10-28T19:43:45.453Z,4.32
2022-10-28T19:46:16.649Z,4.85
2022-10-28T19:48:48.064Z,4.63
2022-10-28T19:51:23.692Z,4.93
2022-10-28T19:53:58.569Z,4.18
2022-10-28T19:56:25.719Z,4.40
2022-10-28T19:58:55.415Z,4.40
2022-10-28T20:01:23.692Z,4.57
2022-10-28T20:03:51.558Z,4.40
2022-10-28T20:06:20.396Z,4.50
2022-10-28T20:08:48.222Z,4.38
2022-10-28T20:11:23.096Z,4.55
2022-10-28T20:13:57.712Z,4.85
2022-10-28T20:16:25.784Z,4.57
2022-10-28T20:18:54.861Z,4.43
2022-10-28T20:21:23.439Z,4.85
2022-10-28T20:23:55.227Z,5.05
2022-10-28T20:26:25.998Z,5.07
2022-10-28T20:28:52.625Z,4.35
2022-10-28T20:31:22.445Z,4.43
2022-10-28T20:33:51.338Z,4.47
2022-10-28T20:36:24.979Z,4.28
2022-10-28T20:38:56.431Z,4.57
2022-10-28T20:41:24.419Z,4.15
2022-10-28T20:43:51.905Z,4.35
2022-10-28T20:46:20.336Z,4.38
2022-10-28T20:48:48.632Z,4.57
2022-10-28T20:51:15.732Z,3.80
2022-10-28T20:53:42.450Z,4.07
2022-10-28T20:56:16.548Z,4.47
2022-10-28T20:58:42.906Z,4.03
2022-10-28T21:01:18.803Z,4.72
2022-10-28T21:03:46.148Z,3.42
2022-10-28T21:06:15.465Z,4.18
2022-10-28T21:08:42.822Z,4.35
2022-10-28T21:11:13.442Z,4.45
2022-10-28T21:13:40.672Z,4.03
2022-10-28T21:16:09.321Z,3.75
2022-10-28T21:18:37.403Z,3.47
2022-10-28T21:21:04.586Z,4.18
2022-10-28T21:23:31.654Z,3.92
2022-10-28T21:26:03.651Z,3.40
2022-10-28T21:28:32.307Z,4.30
2022-10-28T21:31:04.011Z,4.22
2022-10-28T21:33:31.008Z,3.40
2022-10-28T21:35:59.625Z,3.75
2022-10-28T21:38:27.735Z,3.80
2022-10-28T21:41:01.234Z,4.13
2022-10-28T21:43:30.260Z,4.97
2022-10-28T21:45:56.774Z,3.80
2022-10-28T21:48:24.393Z,4.18
2022-10-28T21:50:52.831Z,4.05
2022-10-28T21:53:19.934Z,4.13
2022-10-28T21:55:49.021Z,3.88
2022-10-28T21:58:17.738Z,4.20
2022-10-28T22:00:44.857Z,3.85
2022-10-28T22:03:13.052Z,4.80
2022-10-28T22:05:39.655Z,4.22
2022-10-28T22:08:06.081Z,4.10
2022-10-28T22:10:32.703Z,4.32
2022-10-28T22:12:59.098Z,3.60
2022-10-28T22:15:25.785Z,4.22
2022-10-28T22:17:52.422Z,3.78
2022-10-28T22:20:19.073Z,4.78
2022-10-28T22:22:45.769Z,3.85
2022-10-28T22:25:12.372Z,4.28
2022-10-28T22:27:39.071Z,4.22
2022-10-28T22:30:06.229Z,5.18
2022-10-28T22:32:32.902Z,5.13
2022-10-28T22:34:59.290Z,4.72
2022-10-28T22:37:25.660Z,4.22
2022-10-28T22:39:52.282Z,4.55
2022-10-28T22:42:18.678Z,4.00
2022-10-28T22:44:45.393Z,4.60
2022-10-28T22:47:12.182Z,4.13
2022-10-28T22:49:38.556Z,4.22
2022-10-28T22:52:05.300Z,4.38
2022-10-28T22:54:31.972Z,4.60
2022-10-28T22:56:58.659Z,4.55
2022-10-28T22:59:25.682Z,4.15
2022-10-28T23:01:52.618Z,4.22
2022-10-28T23:04:19.070Z,5.38
2022-10-28T23:06:45.893Z,5.05
2022-10-28T23:09:12.848Z,4.63
2022-10-28T23:11:39.256Z,4.75
2022-10-28T23:14:05.702Z,3.95
2022-10-28T23:16:32.103Z,5.25
2022-10-28T23:19:01.006Z,4.07
2022-10-28T23:21:28.114Z,4.18
2022-10-28T23:23:59.853Z,4.15
2022-10-28T23:26:28.332Z,4.43
2022-10-28T23:28:59.735Z,4.25
2022-10-28T23:31:26.963Z,4.35
2022-10-28T23:33:54.657Z,4.40
2022-10-28T23:36:21.566Z,3.90
2022-10-28T23:38:48.240Z,4.40
2022-10-28T23:41:18.437Z,4.53
2022-10-28T23:43:45.763Z,4.18
2022-10-28T23:46:12.510Z,3.80
2022-10-28T23:48:39.249Z,4.60
2022-10-28T23:51:06.421Z,4.63
2022-10-28T23:53:33.183Z,3.83
2022-10-28T23:55:59.570Z,4.65
2022-10-28T23:58:27.013Z,4.45
